createdAt,value
2018-04-18T00:01:33.828Z,10.1
2018-04-18T00:07:24.692Z,18.17
2018-04-18T00:13:15.564Z,15.18
2018-04-18T00:19:06.313Z,12.57
2018-04-18T00:24:57.171Z,14.95
2018-04-18T00:30:47.994Z,13.56
2018-04-18T00:36:38.842Z,12.24
2018-04-18T00:42:29.699Z,10.56
2018-04-18T00:48:20.477Z,9.23
2018-04-18T00:54:11.316Z,17.25
2018-04-18T01:00:02.131Z,10.74
2018-04-18T01:05:52.935Z,16.8
2018-04-18T01:11:43.853Z,9.58
2018-04-18T01:17:34.638Z,12.38
2018-04-18T01:23:25.475Z,10.7
2018-04-18T01:29:16.245Z,14.5
2018-04-18T01:35:07.149Z,12.27
2018-04-18T01:40:57.945Z,12.8
2018-04-18T01:46:48.776Z,9.22
2018-04-18T01:52:39.590Z,9.27
2018-04-18T01:58:30.434Z,9.23
2018-04-18T02:04:21.276Z,12.9
2018-04-18T02:10:12.098Z,12.16
2018-04-18T02:16:03.002Z,12.32
2018-04-18T02:21:53.767Z,10.69
2018-04-18T02:27:44.597Z,18.18
2018-04-18T02:33:35.396Z,10.97
2018-04-18T02:39:26.239Z,11.5
2018-04-18T02:45:17.074Z,10.18
2018-04-18T02:51:07.916Z,9.47
2018-04-18T02:56:58.697Z,8.41
2018-04-18T03:02:49.539Z,6.69
2018-04-18T03:08:40.402Z,14.11
2018-04-18T03:14:31.195Z,14.02
2018-04-18T03:20:21.991Z,6.29
2018-04-18T03:26:12.880Z,9.96
2018-04-18T03:32:03.654Z,8.57
2018-04-18T03:37:54.521Z,14.74
2018-04-18T03:43:45.305Z,9.01
2018-04-18T03:49:36.123Z,5.82
2018-04-18T03:55:26.932Z,9.05
2018-04-18T04:01:17.804Z,13.43
2018-04-18T04:07:08.622Z,5.58
2018-04-18T04:12:59.464Z,7.32
2018-04-18T04:18:50.264Z,6.22
2018-04-18T04:24:41.031Z,6.33
2018-04-18T04:30:31.894Z,13.66
2018-04-18T04:36:22.713Z,6.46
2018-04-18T04:42:13.568Z,6.71
2018-04-18T04:48:04.407Z,4.37
2018-04-18T04:53:55.259Z,11.62
2018-04-18T04:59:46.031Z,4.48
2018-04-18T05:05:36.840Z,3.1
2018-04-18T05:11:27.681Z,5.24
2018-04-18T05:17:18.611Z,3.84
2018-04-18T05:23:09.458Z,6.66
2018-04-18T05:29:00.214Z,3.25
2018-04-18T05:34:51.054Z,8.5
2018-04-18T05:40:41.957Z,4.43
2018-04-18T05:46:32.735Z,14.18
2018-04-18T05:52:23.586Z,14.54
2018-04-18T05:58:14.386Z,13.46
2018-04-18T06:04:05.243Z,15.12
2018-04-18T06:09:56.030Z,27.01
2018-04-18T06:15:46.895Z,23.31
2018-04-18T06:21:37.795Z,21.2
2018-04-18T06:27:28.565Z,15.76
2018-04-18T06:33:19.366Z,24.27
2018-04-18T06:39:10.231Z,24.59
2018-04-18T06:45:01.093Z,29.46
2018-04-18T06:50:51.908Z,30.83
2018-04-18T06:56:42.805Z,29.66
2018-04-18T07:02:33.648Z,25.44
2018-04-18T07:08:24.443Z,35.97
2018-04-18T07:14:15.313Z,16.01
2018-04-18T07:20:06.154Z,18.44
2018-04-18T07:25:57.012Z,18.18
2018-04-18T07:31:47.880Z,6.54
2018-04-18T07:37:38.809Z,6.39
2018-04-18T07:43:29.618Z,3.83
2018-04-18T07:49:20.491Z,4.14
2018-04-18T07:55:11.370Z,5.79
2018-04-18T08:01:02.200Z,8.01
2018-04-18T08:06:53.075Z,2.89
2018-04-18T08:12:43.952Z,3.9
2018-04-18T08:18:34.830Z,3.28
2018-04-18T08:24:25.685Z,7.45
2018-04-18T08:30:16.594Z,4.41
2018-04-18T08:36:07.539Z,3.05
2018-04-18T08:41:58.343Z,4.98
2018-04-18T08:47:49.271Z,4.09
2018-04-18T08:53:40.183Z,3.99
2018-04-18T08:59:31.014Z,4.62
2018-04-18T09:05:22.003Z,8.48
2018-04-18T09:11:12.851Z,4.55
2018-04-18T09:17:03.714Z,2.93
2018-04-18T09:22:54.636Z,7.18
2018-04-18T09:28:45.649Z,3.13
2018-04-18T09:34:36.451Z,3.81
2018-04-18T09:40:27.343Z,5.37
2018-04-18T09:46:18.309Z,4.26
2018-04-18T09:52:09.171Z,3.41
2018-04-18T09:58:00.043Z,4.64
2018-04-18T10:03:50.974Z,3.42
2018-04-18T10:09:41.858Z,3.57
2018-04-18T10:15:32.785Z,3.86
2018-04-18T10:21:23.683Z,3.87
2018-04-18T10:27:14.535Z,3.07
2018-04-18T10:33:05.444Z,3.48
2018-04-18T10:38:56.381Z,2.87
2018-04-18T10:44:47.350Z,3.5
2018-04-18T10:50:38.142Z,3.46
2018-04-18T10:56:29.023Z,14
2018-04-18T11:02:19.935Z,9.29
2018-04-18T11:08:10.724Z,6.71
2018-04-18T11:14:01.613Z,15.23
2018-04-18T11:19:52.470Z,11.25
2018-04-18T11:25:43.302Z,12.22
2018-04-18T11:31:34.207Z,7.19
2018-04-18T11:37:25.146Z,10.16
2018-04-18T11:43:15.928Z,7.51
2018-04-18T11:49:06.754Z,6.55
2018-04-18T11:54:57.639Z,8.6
2018-04-18T12:00:48.510Z,4.93
2018-04-18T12:06:39.414Z,4.87
2018-04-18T12:12:30.342Z,9.19
2018-04-18T12:18:21.228Z,6.29
2018-04-18T12:24:12.178Z,4.94
2018-04-18T12:30:03.139Z,3.83
2018-04-18T12:35:53.989Z,5.77
2018-04-18T12:41:44.869Z,5.79
2018-04-18T12:47:35.782Z,3.46
2018-04-18T12:53:26.722Z,6.8
2018-04-18T12:59:17.619Z,5.82
2018-04-18T13:05:08.665Z,5.73
2018-04-18T13:10:59.409Z,4.27
2018-04-18T13:16:50.398Z,3.04
2018-04-18T13:22:41.177Z,3.12
2018-04-18T13:28:32.015Z,8.14
2018-04-18T13:34:22.797Z,9.26
2018-04-18T13:40:13.628Z,2.96
2018-04-18T13:46:04.464Z,6.24
2018-04-18T13:51:55.377Z,3.61
2018-04-18T13:57:46.159Z,3.3
2018-04-18T14:03:36.945Z,8.07
2018-04-18T14:09:27.813Z,6.4
2018-04-18T14:15:18.717Z,5.25
2018-04-18T14:21:09.428Z,4.43
2018-04-18T14:27:00.259Z,4.43
2018-04-18T14:32:51.100Z,7.64
2018-04-18T14:38:41.926Z,8.32
2018-04-18T14:44:32.764Z,4.04
2018-04-18T14:50:23.574Z,3.69
2018-04-18T14:56:14.396Z,10.63
2018-04-18T15:02:05.225Z,4.14
2018-04-18T15:07:56.025Z,3.87
2018-04-18T15:13:46.868Z,5.12
2018-04-18T15:19:37.681Z,6.88
2018-04-18T15:25:28.490Z,4.1
2018-04-18T15:31:19.296Z,4.98
2018-04-18T15:37:10.210Z,6.03
2018-04-18T15:43:01.013Z,5.7
2018-04-18T15:48:51.839Z,4.45
2018-04-18T15:54:42.610Z,4.88
2018-04-18T16:00:33.448Z,8.37
2018-04-18T16:06:24.366Z,24.27
2018-04-18T16:12:15.344Z,4.01
2018-04-18T16:18:06.133Z,7.13
2018-04-18T16:23:57.109Z,5.19
2018-04-18T16:29:47.964Z,15.93
2018-04-18T16:35:38.882Z,6.82
2018-04-18T16:41:29.778Z,3.9
2018-04-18T16:47:20.677Z,10.63
2018-04-18T16:53:11.641Z,11.79
2018-04-18T16:59:02.448Z,8.38
2018-04-18T17:04:53.372Z,11.77
2018-04-18T17:10:44.320Z,9.12
2018-04-18T17:16:35.160Z,7.92
2018-04-18T17:22:26.095Z,8.66
2018-04-18T17:28:16.943Z,7.1
2018-04-18T17:34:07.802Z,4.82
2018-04-18T17:39:58.703Z,5.19
2018-04-18T17:45:49.579Z,7.26
2018-04-18T17:51:40.437Z,8.36
2018-04-18T17:57:31.331Z,7.42
2018-04-18T18:03:22.207Z,7.9
2018-04-18T18:09:13.098Z,5.32
2018-04-18T18:15:03.987Z,8
2018-04-18T18:20:54.876Z,6.12
2018-04-18T18:26:45.754Z,7.8
2018-04-18T18:32:36.624Z,7.37
2018-04-18T18:38:27.517Z,6.22
2018-04-18T18:44:18.379Z,10.66
2018-04-18T18:50:09.270Z,6.63
2018-04-18T18:56:00.117Z,6.38
2018-04-18T19:01:50.973Z,7.06
2018-04-18T19:07:41.844Z,5.82
2018-04-18T19:13:32.718Z,4.18
2018-04-18T19:19:23.573Z,9.93
2018-04-18T19:25:14.455Z,7.67
2018-04-18T19:31:05.311Z,4.53
2018-04-18T19:36:56.155Z,7.36
2018-04-18T19:42:47.001Z,8.73
2018-04-18T19:48:37.895Z,7.11
2018-04-18T19:54:28.767Z,5.04
2018-04-18T20:00:19.609Z,4.02
2018-04-18T20:06:10.535Z,7.95
2018-04-18T20:12:01.337Z,4.02
2018-04-18T20:17:52.231Z,4.34
2018-04-18T20:23:43.071Z,7.16
2018-04-18T20:29:33.982Z,4.55
2018-04-18T20:35:24.839Z,4.1
2018-04-18T20:41:15.648Z,6.37
2018-04-18T20:47:06.482Z,6.6
2018-04-18T20:52:57.368Z,7.57
2018-04-18T20:58:48.239Z,4.58
2018-04-18T21:04:39.122Z,5.1
2018-04-18T21:10:29.924Z,6.21
2018-04-18T21:16:20.846Z,5.25
2018-04-18T21:22:11.613Z,5.99
2018-04-18T21:28:02.536Z,6.9
2018-04-18T21:33:53.318Z,8.01
2018-04-18T21:39:44.176Z,6.72
2018-04-18T21:45:35.072Z,7.28
2018-04-18T21:51:25.908Z,4.75
2018-04-18T21:57:16.807Z,7.32
2018-04-18T22:03:07.686Z,5.35
2018-04-18T22:08:58.493Z,6.57
2018-04-18T22:14:49.341Z,6.36
2018-04-18T22:17:01.967Z,6.16
2018-04-18T22:22:51.841Z,7.87
2018-04-18T22:28:41.899Z,7.16
2018-04-18T22:40:22.100Z,8.73
2018-04-18T22:46:12.087Z,6.74
2018-04-18T22:52:02.367Z,5.81
2018-04-18T22:57:52.489Z,6.02
2018-04-18T23:03:42.528Z,8.36
2018-04-18T23:09:32.535Z,5.16
2018-04-18T23:15:22.799Z,5.49
2018-04-18T23:21:12.717Z,6.08
2018-04-18T23:27:03.074Z,5.2
2018-04-18T23:32:52.996Z,5.99
2018-04-18T23:38:43.365Z,6.33
2018-04-18T23:44:33.323Z,6.59
2018-04-18T23:50:23.523Z,5.93
2018-04-18T23:56:13.683Z,10.48
